createdAt,value
2022-08-01T00:00:08.894Z,99.90
2022-08-01T00:02:36.536Z,99.90
2022-08-01T00:05:03.520Z,99.90
2022-08-01T00:07:30.181Z,99.90
2022-08-01T00:09:56.852Z,99.90
2022-08-01T00:12:23.556Z,99.90
2022-08-01T00:14:50.406Z,99.90
2022-08-01T00:17:17.095Z,99.90
2022-08-01T00:19:43.767Z,99.90
2022-08-01T00:22:10.479Z,99.90
2022-08-01T00:24:37.229Z,99.90
2022-08-01T00:27:04.127Z,99.90
2022-08-01T00:30:12.216Z,99.90
2022-08-01T00:32:17.910Z,99.90
2022-08-01T00:34:44.578Z,99.90
2022-08-01T00:37:15.559Z,99.90
2022-08-01T00:39:43.182Z,99.90
2022-08-01T00:42:11.622Z,99.90
2022-08-01T00:44:39.361Z,99.90
2022-08-01T00:47:07.068Z,99.90
2022-08-01T00:49:33.959Z,99.90
2022-08-01T00:52:01.170Z,99.90
2022-08-01T00:54:28.916Z,99.90
2022-08-01T00:56:55.985Z,99.90
2022-08-01T00:59:23.886Z,99.90
2022-08-01T01:01:53.566Z,99.90
2022-08-01T01:04:28.535Z,99.90
2022-08-01T01:07:20.046Z,99.90
2022-08-01T01:10:07.687Z,99.90
2022-08-01T01:12:41.797Z,99.90
2022-08-01T01:15:17.720Z,99.90
2022-08-01T01:18:01.547Z,99.90
2022-08-01T01:20:33.034Z,99.90
2022-08-01T01:23:16.610Z,99.90
2022-08-01T01:25:58.983Z,99.90
2022-08-01T01:28:29.044Z,99.90
2022-08-01T01:30:58.488Z,99.90
2022-08-01T01:33:29.245Z,99.90
2022-08-01T01:36:01.824Z,99.90
2022-08-01T01:38:33.628Z,99.90
2022-08-01T01:41:03.194Z,99.90
2022-08-01T01:43:33.676Z,99.90
2022-08-01T01:46:03.532Z,99.90
2022-08-01T01:48:30.562Z,99.90
2022-08-01T01:50:58.462Z,99.90
2022-08-01T01:53:27.876Z,99.90
2022-08-01T01:55:57.557Z,99.90
2022-08-01T01:58:25.302Z,99.90
2022-08-01T02:00:53.813Z,99.90
2022-08-01T02:03:22.695Z,99.90
2022-08-01T02:05:50.951Z,99.90
2022-08-01T02:08:18.197Z,99.90
2022-08-01T02:11:05.356Z,99.90
2022-08-01T02:13:34.546Z,99.90
2022-08-01T02:16:02.964Z,99.90
2022-08-01T02:18:29.794Z,99.90
2022-08-01T02:20:58.695Z,99.90
2022-08-01T02:58:40.415Z,99.90
2022-08-01T03:01:09.481Z,99.90
2022-08-01T03:03:39.563Z,99.90
2022-08-01T03:06:07.020Z,99.90
2022-08-01T03:08:35.603Z,99.90
2022-08-01T03:11:04.351Z,99.90
2022-08-01T03:13:32.943Z,99.90
2022-08-01T03:16:01.236Z,99.90
2022-08-01T03:18:29.586Z,99.90
2022-08-01T03:20:57.830Z,99.90
2022-08-01T03:23:37.870Z,99.90
2022-08-01T03:26:06.956Z,99.90
2022-08-01T03:28:34.275Z,99.90
2022-08-01T03:31:02.889Z,99.90
2022-08-01T03:33:30.415Z,99.90
2022-08-01T03:36:00.486Z,99.90
2022-08-01T03:38:29.615Z,99.90
2022-08-01T03:41:12.602Z,99.90
2022-08-01T03:43:42.748Z,99.90
2022-08-01T03:46:18.452Z,99.90
2022-08-01T03:48:49.535Z,99.90
2022-08-01T03:51:18.743Z,99.90
2022-08-01T03:53:48.332Z,99.90
2022-08-01T03:56:20.551Z,99.90
2022-08-01T03:58:50.024Z,99.90
2022-08-01T04:01:18.223Z,99.90
2022-08-01T04:03:45.669Z,99.90
2022-08-01T04:06:14.664Z,99.90
2022-08-01T04:08:42.087Z,99.90
2022-08-01T04:11:10.289Z,99.90
2022-08-01T04:13:38.472Z,99.90
2022-08-01T04:16:05.939Z,99.90
2022-08-01T04:18:33.101Z,99.90
2022-08-01T04:20:59.838Z,99.90
2022-08-01T04:23:28.122Z,99.90
2022-08-01T04:25:56.708Z,99.90
2022-08-01T04:28:24.826Z,99.90
2022-08-01T04:30:58.403Z,99.90
2022-08-01T04:33:30.920Z,99.90
2022-08-01T04:36:02.667Z,99.90
2022-08-01T04:38:34.331Z,99.90
2022-08-01T04:41:09.319Z,99.90
2022-08-01T04:43:37.667Z,99.90
2022-08-01T04:46:05.047Z,99.90
2022-08-01T04:48:34.504Z,99.90
2022-08-01T04:51:01.859Z,99.90
2022-08-01T04:53:28.804Z,99.90
2022-08-01T04:55:56.482Z,99.90
2022-08-01T04:58:23.307Z,99.90
2022-08-01T05:00:50.167Z,99.90
2022-08-01T05:03:16.907Z,99.90
2022-08-01T05:05:43.768Z,99.90
2022-08-01T05:08:10.958Z,99.90
2022-08-01T05:10:37.678Z,99.90
2022-08-01T05:13:04.430Z,99.90
2022-08-01T05:15:31.832Z,99.90
2022-08-01T05:17:58.623Z,99.90
2022-08-01T05:20:25.351Z,99.90
2022-08-01T05:22:52.050Z,99.90
2022-08-01T05:25:20.402Z,99.90
2022-08-01T05:27:49.204Z,99.90
2022-08-01T05:30:18.742Z,99.90
2022-08-01T05:32:45.463Z,99.90
2022-08-01T05:35:12.463Z,99.90
2022-08-01T05:37:39.292Z,99.90
2022-08-01T05:40:06.784Z,99.90
2022-08-01T05:42:33.668Z,99.90
2022-08-01T05:45:00.382Z,99.90
2022-08-01T05:47:27.109Z,99.90
2022-08-01T05:49:53.953Z,99.90
2022-08-01T05:52:20.605Z,99.90
2022-08-01T05:54:47.251Z,99.90
2022-08-01T05:57:15.240Z,99.90
2022-08-01T05:59:42.142Z,99.90
2022-08-01T06:02:09.400Z,99.90
2022-08-01T06:04:36.626Z,99.90
2022-08-01T06:07:03.305Z,99.90
2022-08-01T06:09:31.587Z,99.90
2022-08-01T06:11:58.579Z,99.90
2022-08-01T06:14:25.314Z,99.90
2022-08-01T06:16:52.009Z,99.90
2022-08-01T06:19:18.936Z,99.90
2022-08-01T06:21:45.670Z,99.90
2022-08-01T06:24:12.479Z,99.90
2022-08-01T06:26:39.230Z,99.90
2022-08-01T06:29:05.962Z,99.90
2022-08-01T06:31:33.927Z,99.90
2022-08-01T06:34:01.286Z,99.90
2022-08-01T06:36:28.249Z,99.90
2022-08-01T06:38:54.947Z,99.90
2022-08-01T06:41:21.728Z,99.90
2022-08-01T06:43:48.519Z,99.90
2022-08-01T06:46:15.313Z,99.90
2022-08-01T06:48:43.485Z,99.90
2022-08-01T06:51:10.247Z,99.90
2022-08-01T06:53:38.498Z,99.90
2022-08-01T06:56:06.362Z,99.90
2022-08-01T06:58:33.416Z,99.90
2022-08-01T07:01:01.458Z,99.90
2022-08-01T07:03:53.879Z,99.90
2022-08-01T07:06:15.929Z,99.90
2022-08-01T07:08:43.636Z,99.90
2022-08-01T07:11:10.295Z,99.90
2022-08-01T07:13:45.495Z,99.90
2022-08-01T07:16:14.069Z,99.90
2022-08-01T07:18:41.074Z,99.90
2022-08-01T07:21:16.443Z,99.90
2022-08-01T07:23:54.973Z,99.90
2022-08-01T07:26:22.713Z,99.90
2022-08-01T07:28:49.431Z,99.90
2022-08-01T07:31:16.327Z,99.90
2022-08-01T07:33:48.799Z,99.90
2022-08-01T07:36:16.829Z,99.90
2022-08-01T07:38:44.072Z,99.90
2022-08-01T07:41:10.924Z,99.90
2022-08-01T07:43:37.755Z,99.90
2022-08-01T07:46:05.143Z,99.90
2022-08-01T07:48:32.554Z,99.90
2022-08-01T07:50:59.295Z,99.90
2022-08-01T07:53:26.720Z,99.90
2022-08-01T07:55:53.494Z,99.90
2022-08-01T07:58:20.514Z,99.90
2022-08-01T08:00:47.330Z,99.90
2022-08-01T08:03:13.995Z,99.90
2022-08-01T08:05:57.730Z,99.90
2022-08-01T08:08:26.156Z,99.90
2022-08-01T08:10:52.814Z,99.90
2022-08-01T08:13:19.535Z,99.90
2022-08-01T08:15:48.222Z,99.90
2022-08-01T08:18:15.588Z,99.90
2022-08-01T08:20:42.288Z,99.90
2022-08-01T08:23:41.846Z,99.90
2022-08-01T08:26:10.451Z,99.90
2022-08-01T08:28:37.515Z,99.90
2022-08-01T08:31:04.198Z,99.90
2022-08-01T08:33:30.955Z,99.90
2022-08-01T08:35:57.823Z,99.90
2022-08-01T08:38:29.971Z,99.90
2022-08-01T08:40:57.689Z,99.90
2022-08-01T08:43:26.158Z,99.90
2022-08-01T08:45:59.837Z,99.90
2022-08-01T08:48:28.271Z,99.90
2022-08-01T08:50:56.140Z,99.90
2022-08-01T08:53:23.311Z,99.90
2022-08-01T08:55:55.825Z,99.90
2022-08-01T08:58:30.524Z,99.90
2022-08-01T09:01:00.080Z,99.90
2022-08-01T09:03:26.918Z,99.90
2022-08-01T09:05:53.914Z,99.90
2022-08-01T09:08:20.597Z,99.90
2022-08-01T09:10:47.351Z,99.90
2022-08-01T09:13:15.816Z,99.90
2022-08-01T09:15:59.724Z,99.90
2022-08-01T09:18:35.045Z,99.90
2022-08-01T09:21:16.859Z,99.90
2022-08-01T09:23:53.835Z,99.90
2022-08-01T09:26:37.055Z,99.90
2022-08-01T09:29:05.739Z,99.90
2022-08-01T09:31:42.703Z,99.90
2022-08-01T09:34:15.497Z,99.90
2022-08-01T09:36:55.300Z,99.90
2022-08-01T09:39:33.179Z,99.90
2022-08-01T09:42:02.032Z,99.70
2022-08-01T09:44:54.998Z,99.70
2022-08-01T09:47:23.363Z,99.60
2022-08-01T09:49:59.258Z,99.70
2022-08-01T09:52:28.892Z,99.70
2022-08-01T09:54:57.364Z,99.20
2022-08-01T09:57:24.446Z,98.70
2022-08-01T10:00:01.461Z,99.40
2022-08-01T10:02:31.401Z,98.80
2022-08-01T10:05:03.210Z,97.70
2022-08-01T10:07:42.884Z,98.00
2022-08-01T10:10:15.737Z,97.80
2022-08-01T10:12:44.303Z,97.90
2022-08-01T10:15:16.462Z,97.50
2022-08-01T10:17:57.370Z,97.30
2022-08-01T10:20:32.288Z,97.80
2022-08-01T10:23:05.841Z,97.50
2022-08-01T10:25:42.190Z,96.10
2022-08-01T10:28:23.823Z,96.20
2022-08-01T10:30:53.118Z,95.70
2022-08-01T10:33:50.822Z,95.90
2022-08-01T10:36:10.600Z,95.80
2022-08-01T10:38:37.658Z,95.50
2022-08-01T10:41:06.321Z,95.50
2022-08-01T10:43:35.431Z,95.50
2022-08-01T10:46:04.675Z,95.40
2022-08-01T10:48:53.219Z,95.20
2022-08-01T10:51:21.447Z,94.80
2022-08-01T10:53:54.164Z,94.70
2022-08-01T10:56:26.558Z,94.60
2022-08-01T10:59:06.528Z,94.80
2022-08-01T11:01:38.830Z,94.50
2022-08-01T11:04:16.974Z,94.20
2022-08-01T11:06:53.358Z,94.70
2022-08-01T11:09:36.507Z,94.30
2022-08-01T11:12:24.780Z,94.20
2022-08-01T11:15:02.942Z,94.20
2022-08-01T11:17:37.312Z,94.70
2022-08-01T11:20:15.786Z,93.40
2022-08-01T11:23:03.371Z,92.90
2022-08-01T11:26:06.817Z,92.30
2022-08-01T11:28:35.794Z,92.20
2022-08-01T11:31:11.657Z,91.80
2022-08-01T11:33:45.973Z,91.40
2022-08-01T11:36:15.723Z,91.70
2022-08-01T11:38:46.888Z,90.30
2022-08-01T11:41:38.090Z,91.00
2022-08-01T11:44:18.325Z,90.00
2022-08-01T11:47:00.655Z,89.30
2022-08-01T11:49:30.390Z,88.20
2022-08-01T11:52:06.775Z,89.30
2022-08-01T11:54:55.723Z,88.90
2022-08-01T11:57:34.155Z,86.80
2022-08-01T12:00:20.494Z,89.00
2022-08-01T12:02:56.886Z,84.70
2022-08-01T12:05:27.364Z,85.80
2022-08-01T12:07:56.199Z,85.00
2022-08-01T12:10:29.327Z,84.00
2022-08-01T12:13:00.812Z,84.40
2022-08-01T12:15:35.547Z,83.90
2022-08-01T12:18:07.206Z,84.40
2022-08-01T12:20:36.841Z,82.10
2022-08-01T12:23:09.766Z,81.70
2022-08-01T12:25:37.409Z,81.30
2022-08-01T12:28:09.274Z,80.60
2022-08-01T12:30:38.692Z,80.60
2022-08-01T12:33:10.145Z,77.60
2022-08-01T12:35:39.245Z,77.30
2022-08-01T12:38:08.773Z,76.60
2022-08-01T12:40:45.104Z,77.10
2022-08-01T12:43:28.094Z,83.50
2022-08-01T12:45:58.597Z,77.70
2022-08-01T12:48:26.434Z,78.70
2022-08-01T12:50:54.402Z,77.00
2022-08-01T12:53:22.985Z,76.30
2022-08-01T12:55:58.235Z,76.40
2022-08-01T12:58:31.468Z,76.70
2022-08-01T13:01:12.130Z,74.70
2022-08-01T13:03:40.123Z,73.30
2022-08-01T13:06:16.345Z,72.90
2022-08-01T13:08:44.204Z,71.20
2022-08-01T13:11:17.289Z,71.90
2022-08-01T13:13:49.317Z,71.00
2022-08-01T13:16:30.854Z,74.10
2022-08-01T13:19:06.555Z,71.30
2022-08-01T13:21:52.213Z,69.80
2022-08-01T13:24:24.743Z,70.40
2022-08-01T13:27:04.465Z,70.00
2022-08-01T13:29:32.504Z,68.80
2022-08-01T13:32:01.167Z,69.20
2022-08-01T13:34:34.828Z,67.00
2022-08-01T13:37:02.517Z,67.90
2022-08-01T13:39:41.615Z,68.20
2022-08-01T13:42:10.381Z,67.90
2022-08-01T13:44:37.261Z,68.50
2022-08-01T13:47:11.648Z,68.60
2022-08-01T13:49:42.841Z,70.70
2022-08-01T13:52:10.010Z,67.40
2022-08-01T13:54:37.314Z,65.80
2022-08-01T13:57:04.292Z,67.30
2022-08-01T13:59:31.071Z,65.00
2022-08-01T14:01:57.839Z,66.60
2022-08-01T14:04:24.701Z,66.10
2022-08-01T14:06:51.481Z,67.80
2022-08-01T14:09:24.100Z,66.10
2022-08-01T14:11:51.404Z,64.30
2022-08-01T14:14:18.100Z,65.40
2022-08-01T14:16:45.839Z,64.20
2022-08-01T14:19:13.054Z,64.30
2022-08-01T14:21:39.829Z,64.30
2022-08-01T14:24:07.567Z,64.60
2022-08-01T14:26:34.346Z,62.60
2022-08-01T14:29:03.588Z,63.10
2022-08-01T14:31:34.128Z,61.40
2022-08-01T14:34:01.300Z,61.30
2022-08-01T14:36:31.183Z,59.80
2022-08-01T14:39:00.327Z,58.90
2022-08-01T14:41:28.640Z,58.00
2022-08-01T14:43:58.224Z,59.60
2022-08-01T14:46:24.979Z,59.00
2022-08-01T14:48:51.823Z,60.20
2022-08-01T14:51:18.614Z,57.80
2022-08-01T14:53:46.778Z,60.50
2022-08-01T14:56:15.834Z,58.00
2022-08-01T14:58:42.614Z,58.00
2022-08-01T15:01:09.359Z,58.20
2022-08-01T15:03:36.135Z,59.00
2022-08-01T15:06:03.262Z,59.60
2022-08-01T15:08:30.960Z,59.30
2022-08-01T15:10:57.725Z,60.20
2022-08-01T15:13:24.474Z,59.60
2022-08-01T15:15:51.179Z,58.60
2022-08-01T15:18:17.830Z,58.90
2022-08-01T15:20:44.809Z,59.00
2022-08-01T15:23:11.575Z,59.20
2022-08-01T15:25:41.270Z,61.10
2022-08-01T15:28:12.605Z,60.30
2022-08-01T15:30:39.604Z,59.00
2022-08-01T15:33:06.383Z,57.30
2022-08-01T15:35:33.679Z,58.70
2022-08-01T15:38:00.724Z,61.20
2022-08-01T15:40:29.125Z,60.10
2022-08-01T15:42:56.018Z,60.20
2022-08-01T15:45:46.480Z,60.70
2022-08-01T15:48:09.984Z,60.60
2022-08-01T15:50:38.976Z,62.60
2022-08-01T15:53:06.761Z,61.10
2022-08-01T15:55:38.152Z,60.20
2022-08-01T15:58:05.579Z,59.90
2022-08-01T16:00:32.788Z,59.70
2022-08-01T16:03:02.725Z,61.30
2022-08-01T16:05:29.432Z,61.00
2022-08-01T16:08:01.498Z,62.70
2022-08-01T16:10:30.158Z,62.10
2022-08-01T16:13:04.492Z,62.50
2022-08-01T16:15:36.624Z,62.20
2022-08-01T16:18:05.404Z,63.60
2022-08-01T16:20:32.369Z,62.40
2022-08-01T16:22:59.074Z,63.00
2022-08-01T16:25:25.848Z,63.70
2022-08-01T16:27:52.612Z,63.50
2022-08-01T16:30:19.307Z,62.50
2022-08-01T16:32:47.981Z,62.50
2022-08-01T16:35:19.602Z,62.90
2022-08-01T16:37:47.136Z,64.90
2022-08-01T16:40:14.864Z,62.80
2022-08-01T16:42:41.573Z,64.10
2022-08-01T16:45:13.914Z,64.60
2022-08-01T16:47:41.343Z,64.70
2022-08-01T16:50:09.389Z,65.10
2022-08-01T16:52:42.062Z,64.60
2022-08-01T16:55:10.220Z,64.70
2022-08-01T16:57:38.342Z,64.80
2022-08-01T17:00:20.864Z,65.20
2022-08-01T17:02:48.415Z,65.20
2022-08-01T17:05:15.260Z,65.50
2022-08-01T17:07:42.135Z,64.90
2022-08-01T17:10:09.894Z,65.30
2022-08-01T17:12:36.559Z,65.40
2022-08-01T17:15:03.987Z,65.40
2022-08-01T17:17:30.687Z,65.80
2022-08-01T17:19:57.363Z,66.10
2022-08-01T17:22:24.041Z,65.80
2022-08-01T17:24:53.703Z,66.20
2022-08-01T17:27:20.739Z,65.70
2022-08-01T17:29:47.551Z,65.60
2022-08-01T17:32:14.651Z,66.00
2022-08-01T17:34:42.547Z,67.20
2022-08-01T17:37:10.076Z,66.90
2022-08-01T17:39:39.385Z,65.60
2022-08-01T17:42:08.285Z,67.40
2022-08-01T17:44:35.159Z,66.90
2022-08-01T17:47:02.151Z,66.20
2022-08-01T17:49:53.324Z,66.40
2022-08-01T17:52:15.742Z,67.80
2022-08-01T17:54:42.536Z,67.40
2022-08-01T17:57:10.322Z,68.80
2022-08-01T17:59:37.190Z,68.20
2022-08-01T18:02:04.443Z,67.50
2022-08-01T18:04:33.864Z,68.00
2022-08-01T18:07:01.689Z,69.10
2022-08-01T18:09:32.671Z,67.40
2022-08-01T18:12:03.011Z,67.80
2022-08-01T18:14:40.275Z,68.30
2022-08-01T18:17:11.327Z,67.90
2022-08-01T18:19:39.588Z,68.40
2022-08-01T18:22:15.624Z,68.20
2022-08-01T18:24:53.690Z,68.20
2022-08-01T18:27:20.456Z,68.40
2022-08-01T18:29:48.741Z,68.10
2022-08-01T18:32:16.039Z,68.30
2022-08-01T18:34:42.742Z,68.60
2022-08-01T18:37:11.355Z,68.50
2022-08-01T18:39:40.025Z,68.90
2022-08-01T18:42:07.291Z,68.60
2022-08-01T18:44:34.715Z,68.70
2022-08-01T18:47:01.416Z,68.20
2022-08-01T18:49:28.204Z,69.00
2022-08-01T18:51:55.918Z,68.30
2022-08-01T18:54:24.401Z,68.50
2022-08-01T18:56:51.685Z,69.40
2022-08-01T18:59:18.895Z,69.30
2022-08-01T19:01:45.668Z,71.30
2022-08-01T19:04:13.293Z,72.30
2022-08-01T19:06:40.521Z,73.40
2022-08-01T19:09:07.881Z,73.00
2022-08-01T19:11:34.877Z,71.60
2022-08-01T19:14:02.933Z,73.30
2022-08-01T19:16:29.831Z,75.30
2022-08-01T19:18:56.562Z,76.20
2022-08-01T19:21:23.426Z,73.50
2022-08-01T19:24:09.165Z,73.50
2022-08-01T19:26:37.573Z,78.10
2022-08-01T19:29:15.485Z,93.50
2022-08-01T19:31:47.011Z,97.60
2022-08-01T19:34:17.081Z,99.90
2022-08-01T19:36:48.507Z,99.90
2022-08-01T19:39:16.813Z,99.90
2022-08-01T19:41:47.692Z,99.90
2022-08-01T19:44:16.575Z,99.90
2022-08-01T19:46:44.335Z,99.90
2022-08-01T19:49:18.818Z,99.90
2022-08-01T19:51:50.727Z,99.90
2022-08-01T19:54:19.549Z,99.90
2022-08-01T19:56:48.105Z,99.90
2022-08-01T19:59:20.568Z,99.90
2022-08-01T20:01:48.906Z,99.90
2022-08-01T20:04:19.437Z,99.90
2022-08-01T20:06:47.240Z,99.90
2022-08-01T20:09:14.607Z,99.90
2022-08-01T20:11:46.495Z,99.90
2022-08-01T20:14:21.697Z,99.90
2022-08-01T20:16:49.671Z,99.90
2022-08-01T20:19:17.907Z,99.90
2022-08-01T20:22:03.420Z,99.90
2022-08-01T20:24:51.947Z,99.90
2022-08-01T20:27:20.442Z,99.90
2022-08-01T20:29:50.868Z,99.90
2022-08-01T20:32:19.794Z,99.90
2022-08-01T20:34:46.613Z,99.90
2022-08-01T20:37:14.114Z,99.90
2022-08-01T20:39:43.881Z,99.90
2022-08-01T20:42:11.770Z,99.90
2022-08-01T20:44:39.317Z,99.90
2022-08-01T20:47:06.075Z,99.90
2022-08-01T20:49:35.118Z,99.90
2022-08-01T20:52:02.042Z,99.90
2022-08-01T20:54:39.856Z,99.90
2022-08-01T20:57:21.964Z,99.90
2022-08-01T21:00:00.738Z,99.90
2022-08-01T21:02:51.238Z,99.90
2022-08-01T21:05:29.395Z,99.90
2022-08-01T21:08:11.339Z,99.90
2022-08-01T21:10:40.947Z,99.90
2022-08-01T21:13:16.651Z,99.90
2022-08-01T21:16:23.631Z,99.90
2022-08-01T21:19:19.226Z,99.90
2022-08-01T21:22:12.721Z,99.90
2022-08-01T21:24:59.911Z,99.90
2022-08-01T21:27:33.810Z,99.90
2022-08-01T21:30:04.063Z,99.90
2022-08-01T21:32:34.100Z,99.90
2022-08-01T21:35:01.861Z,99.90
2022-08-01T21:37:29.675Z,99.90
2022-08-01T21:39:59.489Z,99.90
2022-08-01T21:42:28.538Z,99.90
2022-08-01T21:45:00.024Z,99.90
2022-08-01T21:47:29.518Z,99.90
2022-08-01T21:50:02.578Z,99.90
2022-08-01T21:53:11.564Z,99.90
2022-08-01T21:56:16.566Z,99.90
2022-08-01T21:59:15.110Z,99.90
2022-08-01T22:02:08.645Z,99.90
2022-08-01T22:04:47.631Z,99.90
2022-08-01T22:07:18.359Z,99.90
2022-08-01T22:09:49.386Z,99.90
2022-08-01T22:12:18.821Z,99.90
2022-08-01T22:14:48.945Z,99.90
2022-08-01T22:17:22.683Z,99.90
2022-08-01T22:19:55.015Z,99.90
2022-08-01T22:22:50.936Z,99.90
2022-08-01T22:25:10.722Z,99.90
2022-08-01T22:28:03.278Z,99.90
2022-08-01T22:30:29.182Z,99.90
2022-08-01T22:33:15.262Z,99.90
2022-08-01T22:35:45.951Z,99.90
2022-08-01T22:38:13.558Z,99.90
2022-08-01T22:40:48.295Z,99.90
2022-08-01T22:43:50.135Z,99.90
2022-08-01T22:47:05.111Z,99.90
2022-08-01T22:49:42.093Z,99.90
2022-08-01T22:52:33.206Z,99.90
2022-08-01T22:55:09.284Z,99.90
2022-08-01T22:57:50.261Z,99.90
2022-08-01T23:00:17.761Z,99.90
2022-08-01T23:03:08.814Z,99.90
2022-08-01T23:05:40.336Z,99.90
2022-08-01T23:08:10.614Z,99.90
2022-08-01T23:10:43.592Z,99.90
2022-08-01T23:13:11.025Z,99.90
2022-08-01T23:15:38.263Z,99.90
2022-08-01T23:18:06.100Z,99.90
2022-08-01T23:20:34.792Z,99.90
2022-08-01T23:23:03.331Z,99.90
2022-08-01T23:25:33.225Z,99.90
2022-08-01T23:28:05.301Z,99.90
2022-08-01T23:30:35.219Z,99.90
2022-08-01T23:33:02.771Z,99.90
2022-08-01T23:35:30.649Z,99.90
2022-08-01T23:38:02.393Z,99.90
2022-08-01T23:40:33.874Z,99.90
2022-08-01T23:43:02.150Z,99.90
2022-08-01T23:46:02.307Z,99.90
2022-08-01T23:48:16.150Z,99.90
2022-08-01T23:50:43.054Z,99.90
2022-08-01T23:53:09.773Z,99.90
2022-08-01T23:55:38.051Z,99.90
2022-08-01T23:58:06.460Z,99.90
